.
WxDataArchive / Data Records for 2007-08-05
2007-08-04 August 2007 2007-08-06

Data Records for Sunday, 05 August 2007

Time	Temp	Chill	HIndex	Humid	Dewpt	 Wind 	HiWind	WindDir	Rain 	Barom 
-----	----	-----	------	-----	-----	------	------	-------	-----	----- 
00:00	71.6	71.6	71.6	65	59.2	1	3	90	0.00	29.932 
00:05	71.5	71.5	71.5	67	60.0	0	2	90	0.00	29.933 
00:10	71.3	71.3	71.3	67	59.8	0	1	90	0.00	29.930 
00:15	71.1	71.1	71.1	68	60.0	0	0	---	0.00	29.931 
00:20	70.9	70.9	70.9	68	59.8	0	0	---	0.00	29.928 
00:25	70.8	70.8	70.8	69	60.1	0	1	90	0.00	29.931 
00:30	70.6	70.6	70.6	70	60.3	0	1	90	0.00	29.929 
00:35	70.6	70.6	70.6	69	59.9	0	1	90	0.00	29.923 
00:40	70.6	70.6	70.6	69	59.9	0	1	90	0.00	29.919 
00:45	70.4	70.4	70.4	69	59.7	0	1	90	0.00	29.919 
00:50	70.4	70.4	70.4	69	59.7	0	1	90	0.00	29.921 
00:55	70.4	70.4	70.4	68	59.3	0	1	90	0.00	29.919 
01:00	70.4	70.4	70.4	69	59.7	1	2	90	0.00	29.916 
01:05	70.4	70.4	70.4	68	59.3	0	2	90	0.00	29.916 
01:10	70.4	70.4	70.4	68	59.3	0	1	90	0.00	29.917 
01:15	70.4	70.4	70.4	68	59.3	0	1	90	0.00	29.913 
01:20	70.6	70.6	70.6	68	59.5	0	2	90	0.00	29.912 
01:25	70.6	70.6	70.6	68	59.5	0	1	90	0.00	29.917 
01:30	70.6	70.6	70.6	69	59.9	0	1	90	0.00	29.919 
01:35	70.4	70.4	70.4	69	59.7	0	2	90	0.00	29.921 
01:40	70.4	70.4	70.4	69	59.7	0	2	90	0.00	29.916 
01:45	70.3	70.3	70.3	70	60.0	1	3	90	0.00	29.909 
01:50	70.1	70.1	70.1	72	60.6	0	2	90	0.00	29.905 
01:55	70.1	70.1	70.1	73	61.0	0	2	90	0.00	29.904 
02:00	69.9	69.9	69.9	74	61.2	0	1	90	0.00	29.904 
02:05	69.8	69.8	69.8	74	61.1	0	2	90	0.00	29.900 
02:10	69.6	69.6	69.6	75	61.3	1	2	90	0.00	29.900 
02:15	69.6	69.6	69.6	76	61.7	0	1	90	0.00	29.893 
02:20	69.6	69.6	69.6	77	62.1	1	3	90	0.00	29.889 
02:25	69.4	69.4	69.4	79	62.6	1	5	90	0.00	29.889 
02:30	69.4	69.4	69.4	80	63.0	1	3	68	0.00	29.893 
02:35	69.1	69.1	69.1	81	63.0	1	4	68	0.00	29.897 
02:40	68.9	68.9	68.9	83	63.5	1	2	68	0.00	29.894 
02:45	68.8	68.8	68.8	84	63.8	1	3	68	0.00	29.894 
02:50	68.4	68.4	68.4	85	63.7	1	4	68	0.00	29.890 
02:55	68.4	68.4	68.4	85	63.7	1	3	112	0.00	29.890 
03:00	68.1	68.1	68.1	86	63.7	2	5	90	0.00	29.890 
03:05	68.1	68.1	68.1	86	63.7	2	5	68	0.00	29.892 
03:10	67.9	67.9	67.9	86	63.5	1	4	90	0.00	29.891 
03:15	67.8	67.8	67.8	86	63.5	2	4	90	0.00	29.891 
03:20	67.8	67.8	67.8	86	63.5	1	4	90	0.00	29.890 
03:25	67.6	67.6	67.6	85	62.9	1	4	90	0.00	29.890 
03:30	67.4	67.4	67.4	85	62.7	2	4	90	0.00	29.890 
03:35	67.4	67.4	67.4	86	63.1	2	5	90	0.00	29.890 
03:40	67.3	67.3	67.3	86	63.0	2	4	90	0.00	29.890 
03:45	67.1	67.1	67.1	86	62.8	3	5	90	0.00	29.885 
03:50	66.8	66.8	66.8	86	62.5	2	7	90	0.01	29.885 
03:55	66.6	66.6	66.6	88	62.9	1	4	90	0.01	29.888 
04:00	66.3	66.3	66.3	89	63.0	1	5	90	0.01	29.890 
04:05	66.0	66.0	66.0	90	63.0	1	3	90	0.01	29.891 
04:10	65.8	65.8	65.8	91	63.1	1	3	90	0.01	29.889 
04:15	65.6	65.6	65.6	91	62.9	1	3	90	0.01	29.891 
04:20	65.5	65.5	65.5	92	63.1	1	3	90	0.01	29.893 
04:25	65.5	65.5	65.5	92	63.1	1	3	90	0.02	29.893 
04:30	65.3	65.3	65.3	93	63.2	1	3	112	0.02	29.894 
04:35	65.2	65.2	65.2	93	63.1	2	3	68	0.03	29.892 
04:40	65.2	65.2	65.2	94	63.4	2	5	68	0.02	29.887 
04:45	65.0	65.0	65.0	95	63.5	2	5	68	0.02	29.884 
04:50	65.0	65.0	65.0	95	63.5	1	4	45	0.02	29.890 
04:55	64.8	64.8	64.8	95	63.3	2	4	90	0.02	29.888 
05:00	64.8	64.8	64.8	95	63.3	2	5	90	0.02	29.887 
05:05	64.8	64.8	64.8	96	63.6	2	6	90	0.02	29.885 
05:10	64.7	64.7	64.7	96	63.5	2	5	90	0.03	29.882 
05:15	64.7	64.7	64.7	96	63.5	2	5	90	0.02	29.883 
05:20	64.7	64.7	64.7	96	63.5	1	3	90	0.02	29.893 
05:25	64.7	64.7	64.7	96	63.5	0	3	90	0.01	29.898 
05:30	64.7	64.7	64.7	96	63.5	1	3	90	0.05	29.893 
05:35	64.7	64.7	64.7	96	63.5	1	3	90	0.06	29.895 
05:40	64.5	64.5	64.5	96	63.3	1	2	90	0.03	29.896 
05:45	64.5	64.5	64.5	96	63.3	1	4	90	0.02	29.893 
05:50	64.5	64.5	64.5	97	63.6	1	3	90	0.06	29.885 
05:55	64.5	64.5	64.5	97	63.6	2	6	90	0.02	29.878 
06:00	64.5	64.5	64.5	97	63.6	2	4	90	0.02	29.884 
06:05	64.5	64.5	64.5	97	63.6	1	3	112	0.02	29.888 
06:10	64.5	64.5	64.5	97	63.6	2	3	90	0.02	29.876 
06:15	64.5	64.5	64.5	97	63.6	2	4	90	0.03	29.865 
06:20	64.5	64.5	64.5	97	63.6	1	6	90	0.00	29.877 
06:25	64.5	64.5	64.5	97	63.6	2	7	90	0.03	29.881 
06:30	64.7	64.7	64.7	97	63.8	1	3	90	0.00	29.882 
06:35	64.7	64.7	64.7	97	63.8	2	5	112	0.01	29.877 
06:40	64.7	64.7	64.7	97	63.8	2	5	90	0.05	29.861 
06:45	64.7	64.7	64.7	97	63.8	2	4	68	0.01	29.868 
06:50	64.7	64.7	64.7	97	63.8	1	4	68	0.00	29.869 
06:55	64.7	64.7	64.7	97	63.8	1	3	90	0.01	29.869 
07:00	64.8	64.8	64.8	97	63.9	1	3	90	0.00	29.874 
07:05	64.8	64.8	64.8	97	63.9	1	3	90	0.07	29.879 
07:10	65.0	65.0	65.0	97	64.1	1	3	112	0.05	29.868 
07:15	65.0	65.0	65.0	97	64.1	0	2	112	0.07	29.863 
07:20	65.0	65.0	65.0	97	64.1	1	4	90	0.03	29.856 
07:25	65.2	65.2	65.2	98	64.6	1	4	68	0.02	29.856 
07:30	65.2	65.2	65.2	98	64.6	0	2	68	0.00	29.854 
07:35	65.5	65.5	65.5	98	64.9	1	2	68	0.00	29.852 
07:40	65.6	65.6	65.6	98	65.0	0	1	68	0.00	29.855 
07:45	66.0	66.0	66.0	98	65.4	1	3	90	0.00	29.854 
07:50	66.3	66.3	66.3	98	65.7	1	3	90	0.00	29.854 
07:55	66.3	66.3	66.3	98	65.7	0	2	90	0.00	29.856 
08:00	66.3	66.3	66.3	98	65.7	1	3	90	0.00	29.855 
08:05	66.4	66.4	66.4	98	65.8	1	3	112	0.00	29.856 
08:10	66.6	66.6	66.6	98	66.0	1	3	112	0.00	29.852 
08:15	66.8	66.8	66.8	98	66.2	1	3	112	0.00	29.851 
08:20	66.8	66.8	66.8	98	66.2	1	3	68	0.00	29.849 
08:25	67.1	67.1	67.1	98	66.5	1	4	90	0.00	29.848 
08:30	67.3	67.3	67.3	98	66.7	0	2	90	0.00	29.847 
08:35	67.4	67.4	67.4	98	66.8	0	2	90	0.00	29.847 
08:40	67.6	67.6	67.6	98	67.0	0	2	90	0.00	29.847 
08:45	67.6	67.6	67.6	98	67.0	0	2	90	0.00	29.847 
08:50	67.8	67.8	67.8	98	67.2	1	2	90	0.00	29.847 
08:55	67.9	67.9	67.9	98	67.3	0	1	90	0.00	29.848 
09:00	68.3	68.3	68.3	98	67.7	0	1	90	0.00	29.848 
09:05	68.3	68.3	68.3	98	67.7	0	3	90	0.00	29.848 
09:10	68.4	68.4	68.4	98	67.8	0	0	---	0.00	29.847 
09:15	68.6	68.6	68.6	98	68.0	0	0	---	0.00	29.849 
09:20	68.6	68.6	68.6	98	68.0	0	1	90	0.00	29.849 
09:25	68.8	68.8	68.8	98	68.2	0	0	---	0.00	29.851 
09:30	68.9	68.9	68.9	98	68.3	0	0	---	0.00	29.853 
09:35	68.9	68.9	68.9	98	68.3	0	0	---	0.00	29.850 
09:40	69.1	69.1	69.1	98	68.5	0	0	---	0.00	29.850 
09:45	69.3	69.3	69.3	98	68.7	0	2	90	0.00	29.850 
09:50	69.4	69.4	69.4	98	68.8	0	1	90	0.00	29.848 
09:55	69.6	69.6	69.6	98	69.0	0	1	90	0.00	29.851 
10:00	69.8	69.8	69.8	98	69.2	0	1	90	0.00	29.850 
10:05	69.8	69.8	69.8	98	69.2	0	0	---	0.00	29.860 
10:10	69.9	69.9	69.9	98	69.3	0	0	---	0.00	29.860 
10:15	69.9	69.9	69.9	98	69.3	1	2	90	0.00	29.847 
10:20	70.1	70.1	70.1	98	69.5	0	1	90	0.00	29.847 
10:25	70.1	70.1	70.1	98	69.5	1	3	90	0.00	29.837 
10:30	70.3	70.3	70.3	98	69.7	1	3	90	0.00	29.832 
10:35	70.3	70.3	70.3	98	69.7	1	3	90	0.00	29.830 
10:40	70.4	70.4	70.4	98	69.8	0	2	90	0.00	29.823 
10:45	70.6	70.6	70.6	98	70.0	0	1	90	0.00	29.816 
10:50	70.9	70.9	70.9	98	70.3	0	1	90	0.00	29.815 
10:55	70.9	70.9	70.9	98	70.3	1	3	90	0.00	29.815 
11:00	71.1	71.1	71.1	98	70.5	0	2	90	0.00	29.815 
11:05	71.5	71.5	71.5	98	70.9	0	0	---	0.00	29.819 
11:10	71.6	71.6	71.6	98	71.0	0	2	90	0.00	29.818 
11:15	71.8	71.8	71.8	98	71.2	0	1	90	0.00	29.815 
11:20	71.8	71.8	71.8	98	71.2	0	4	90	0.00	29.814 
11:25	72.0	72.0	72.0	98	71.4	0	1	90	0.00	29.814 
11:30	72.1	72.1	72.1	97	71.2	1	4	90	0.00	29.814 
11:35	72.3	72.3	72.3	97	71.4	0	2	90	0.00	29.814 
11:40	72.8	72.8	72.8	97	71.9	0	2	90	0.00	29.813 
11:45	73.0	73.0	73.0	97	72.1	1	4	90	0.00	29.809 
11:50	73.2	73.2	73.2	97	72.3	1	3	225	0.00	29.810 
11:55	73.9	73.9	73.9	97	73.0	1	3	90	0.00	29.803 
12:00	73.9	73.9	73.9	96	72.7	1	5	270	0.00	29.800 
12:05	74.0	74.0	74.0	96	72.8	1	3	90	0.00	29.801 
12:10	74.2	74.2	74.2	95	72.7	1	3	90	0.00	29.801 
12:15	74.2	74.2	74.2	94	72.4	0	2	90	0.00	29.801 
12:20	74.2	74.2	74.2	93	72.0	0	2	90	0.00	29.797 
12:25	74.4	74.4	74.4	93	72.2	1	6	270	0.00	29.794 
12:30	74.9	74.9	74.9	92	72.4	1	4	248	0.00	29.792 
12:35	75.4	75.4	74.5	92	72.9	0	2	248	0.00	29.790 
12:40	76.3	76.3	76.5	92	73.8	0	2	248	0.00	29.785 
12:45	76.8	76.8	77.7	90	73.6	1	3	270	0.00	29.785 
12:50	77.6	77.6	79.6	89	74.1	0	2	270	0.00	29.781 
12:55	77.6	77.6	79.6	85	72.7	2	6	270	0.00	29.779 
13:00	77.7	77.7	79.8	85	72.8	1	5	248	0.00	29.779 
13:05	77.7	77.7	79.8	84	72.5	1	3	248	0.00	29.779 
13:10	77.9	77.9	80.2	84	72.7	1	3	248	0.00	29.780 
13:15	77.9	77.9	80.2	83	72.3	1	3	248	0.00	29.780 
13:20	78.1	78.1	80.6	85	73.2	0	1	248	0.00	29.779 
13:25	78.1	78.1	80.6	84	72.9	0	1	248	0.00	29.778 
13:30	78.3	78.3	81.0	84	73.1	1	4	270	0.00	29.778 
13:35	78.5	78.5	81.4	83	72.9	1	3	270	0.00	29.779 
13:40	78.5	78.5	81.4	84	73.2	0	1	248	0.00	29.779 
13:45	78.5	78.5	81.4	84	73.2	0	1	248	0.00	29.778 
13:50	78.5	78.5	81.4	84	73.2	0	1	248	0.00	29.777 
13:55	78.5	78.5	81.4	84	73.2	0	2	248	0.00	29.777 
14:00	78.5	78.5	81.4	83	72.9	0	2	248	0.00	29.776 
14:05	78.6	78.6	81.6	84	73.3	0	3	248	0.00	29.775 
14:10	78.8	78.8	82.0	83	73.2	0	3	248	0.00	29.771 
14:15	79.0	79.0	82.5	84	73.7	0	2	248	0.00	29.768 
14:20	79.0	79.0	82.5	84	73.7	0	2	202	0.00	29.766 
14:25	79.2	79.2	82.9	84	73.9	0	2	202	0.00	29.765 
14:30	79.2	79.2	82.8	82	73.2	0	2	202	0.00	29.765 
14:35	79.6	79.6	83.6	82	73.6	0	2	202	0.00	29.764 
14:40	79.9	79.9	84.1	81	73.5	1	4	225	0.00	29.763 
14:45	80.1	80.1	84.6	81	73.7	1	3	248	0.00	29.763 
14:50	80.3	80.3	84.9	80	73.5	1	3	248	0.00	29.763 
14:55	80.9	80.9	86.0	79	73.8	1	3	248	0.00	29.762 
15:00	81.2	81.2	86.7	79	74.0	1	3	270	0.00	29.761 
15:05	81.6	81.6	87.2	77	73.7	1	2	270	0.00	29.760 
15:10	81.6	81.6	86.9	76	73.3	1	4	248	0.00	29.761 
15:15	81.2	81.2	86.1	76	72.9	2	5	248	0.00	29.764 
15:20	81.1	81.1	86.1	77	73.2	1	4	248	0.00	29.763 
15:25	81.1	81.1	86.1	77	73.2	0	2	270	0.00	29.763 
15:30	81.1	81.1	86.1	77	73.2	1	2	270	0.00	29.765 
15:35	81.1	81.1	86.3	78	73.6	0	3	270	0.00	29.765 
15:40	81.1	81.1	86.3	78	73.6	1	2	248	0.00	29.765 
15:45	81.2	81.2	86.3	77	73.3	1	2	248	0.00	29.765 
15:50	81.4	81.4	86.5	76	73.1	1	3	270	0.00	29.764 
15:55	81.6	81.6	86.9	76	73.3	1	3	270	0.00	29.763 
16:00	81.8	81.8	87.6	77	73.9	0	2	270	0.00	29.763 
16:05	81.8	81.8	87.4	76	73.5	1	3	248	0.00	29.764 
16:10	82.0	82.0	87.8	76	73.7	0	2	248	0.00	29.765 
16:15	81.8	81.8	87.1	75	73.1	0	2	248	0.00	29.765 
16:20	81.8	81.8	87.6	77	73.9	0	1	248	0.00	29.764 
16:25	81.6	81.6	87.2	77	73.7	1	3	248	0.00	29.763 
16:30	81.6	81.6	86.9	76	73.3	1	2	248	0.00	29.762 
16:35	81.8	81.8	87.6	77	73.9	1	2	248	0.00	29.760 
16:40	81.8	81.8	87.4	76	73.5	1	3	270	0.00	29.761 
16:45	81.8	81.8	87.4	76	73.5	1	3	270	0.00	29.759 
16:50	81.6	81.6	87.2	77	73.7	1	2	270	0.00	29.760 
16:55	81.2	81.2	86.3	77	73.3	2	6	248	0.00	29.763 
17:00	80.5	80.5	85.1	79	73.4	5	13	270	0.02	29.764 
17:05	77.9	77.9	80.2	83	72.3	3	7	270	0.05	29.763 
17:10	76.7	76.7	77.7	88	72.9	1	4	248	0.10	29.753 
17:15	76.0	76.0	76.0	90	72.8	1	2	90	0.04	29.741 
17:20	75.6	75.6	75.1	91	72.8	0	2	90	0.00	29.738 
17:25	75.4	75.4	74.5	92	72.9	0	1	90	0.00	29.741 
17:30	75.4	75.4	74.4	93	73.2	0	1	90	0.00	29.742 
17:35	75.6	75.6	74.7	94	73.7	0	0	---	0.01	29.746 
17:40	75.8	75.8	75.1	94	73.9	0	0	---	0.01	29.741 
17:45	76.0	76.0	75.5	95	74.5	0	0	---	0.00	29.740 
17:50	76.1	76.1	75.7	95	74.6	0	0	---	0.00	29.742 
17:55	76.5	76.5	76.7	95	75.0	0	0	---	0.00	29.741 
18:00	76.7	76.7	77.1	96	75.5	0	0	---	0.00	29.741 
18:05	76.7	76.7	77.2	95	75.2	0	0	---	0.00	29.739 
18:10	76.7	76.7	77.2	95	75.2	0	1	90	0.00	29.739 
18:15	76.8	76.8	77.4	95	75.3	0	1	90	0.00	29.737 
18:20	76.8	76.8	77.4	95	75.3	0	0	---	0.00	29.740 
18:25	77.0	77.0	77.9	95	75.5	0	1	90	0.00	29.739 
18:30	77.0	77.0	77.9	95	75.5	0	1	90	0.00	29.738 
18:35	77.0	77.0	77.9	95	75.5	0	2	90	0.00	29.739 
18:40	77.4	77.4	79.0	95	75.8	0	0	---	0.00	29.737 
18:45	77.6	77.6	79.5	95	76.0	0	1	90	0.00	29.737 
18:50	77.7	77.7	79.7	95	76.1	0	1	90	0.00	29.737 
18:55	77.7	77.7	79.7	95	76.1	0	1	90	0.00	29.740 
19:00	77.6	77.6	79.5	95	76.0	0	2	90	0.00	29.739 
19:05	77.6	77.6	79.5	95	76.0	0	1	90	0.00	29.737 
19:10	77.4	77.4	79.0	95	75.8	0	1	90	0.00	29.738 
19:15	77.4	77.4	79.0	95	75.8	0	1	90	0.00	29.738 
19:20	77.4	77.4	79.0	95	75.8	0	0	---	0.00	29.737 
19:25	77.4	77.4	79.0	95	75.8	0	0	---	0.00	29.737 
19:30	77.4	77.4	79.0	95	75.8	0	1	90	0.00	29.736 
19:35	77.4	77.4	78.9	96	76.2	0	0	---	0.00	29.736 
19:40	77.4	77.4	78.9	96	76.2	0	0	---	0.00	29.733 
19:45	77.4	77.4	78.9	96	76.2	0	0	---	0.00	29.730 
19:50	77.2	77.2	78.4	96	76.0	0	0	---	0.00	29.726 
19:55	77.2	77.2	78.4	96	76.0	0	0	---	0.00	29.731 
20:00	77.2	77.2	78.4	96	76.0	0	0	---	0.00	29.727 
20:05	77.2	77.2	78.4	96	76.0	0	1	90	0.00	29.721 
20:10	77.2	77.2	78.4	96	76.0	0	0	---	0.00	29.727 
20:15	77.2	77.2	78.4	96	76.0	0	0	---	0.00	29.728 
20:20	77.2	77.2	78.4	96	76.0	0	0	---	0.00	29.721 
20:25	77.2	77.2	78.4	96	76.0	0	0	---	0.01	29.720 
20:30	77.4	77.4	78.9	96	76.2	0	0	---	0.00	29.733 
20:35	77.4	77.4	78.9	96	76.2	1	2	90	0.03	29.730 
20:40	77.4	77.4	78.9	96	76.2	0	1	90	0.00	29.737 
20:45	77.4	77.4	78.9	96	76.2	0	0	---	0.00	29.746 
20:50	77.4	77.4	78.9	96	76.2	0	0	---	0.00	29.748 
20:55	77.4	77.4	78.9	96	76.2	0	0	---	0.00	29.746 
21:00	77.4	77.4	78.9	96	76.2	0	1	90	0.00	29.746 
21:05	77.6	77.6	79.4	97	76.7	1	3	248	0.00	29.746 
21:10	77.4	77.4	78.9	96	76.2	0	2	248	0.00	29.755 
21:15	77.2	77.2	78.4	96	76.0	0	2	248	0.00	29.759 
21:20	77.0	77.0	77.9	96	75.8	1	2	292	0.00	29.764 
21:25	77.0	77.0	77.9	96	75.8	2	4	270	0.03	29.775 
21:30	76.5	76.5	76.6	96	75.3	3	5	270	0.08	29.781 
21:35	75.3	75.3	73.8	95	73.8	1	4	292	0.09	29.777 
21:40	74.9	74.9	74.9	95	73.4	0	1	315	0.02	29.763 
21:45	74.6	74.6	74.6	95	73.1	0	1	315	0.00	29.753 
21:50	74.4	74.4	74.4	95	72.9	0	0	---	0.00	29.753 
21:55	74.2	74.2	74.2	96	73.0	0	0	---	0.00	29.756 
22:00	74.0	74.0	74.0	96	72.8	0	0	---	0.00	29.758 
22:05	74.0	74.0	74.0	96	72.8	0	0	---	0.00	29.756 
22:10	73.9	73.9	73.9	96	72.7	0	0	---	0.00	29.753 
22:15	73.9	73.9	73.9	96	72.7	0	0	---	0.00	29.751 
22:20	73.7	73.7	73.7	96	72.5	0	0	---	0.00	29.753 
22:25	73.7	73.7	73.7	96	72.5	0	0	---	0.00	29.752 
22:30	73.7	73.7	73.7	96	72.5	0	0	---	0.00	29.748 
22:35	73.7	73.7	73.7	96	72.5	0	1	315	0.00	29.746 
22:40	73.7	73.7	73.7	96	72.5	0	1	315	0.00	29.741 
22:45	73.7	73.7	73.7	96	72.5	0	0	---	0.00	29.739 
22:50	73.7	73.7	73.7	96	72.5	0	0	---	0.00	29.740 
22:55	73.7	73.7	73.7	96	72.5	0	1	315	0.00	29.735 
23:00	73.5	73.5	73.5	96	72.3	0	1	315	0.00	29.737 
23:05	73.5	73.5	73.5	96	72.3	0	1	315	0.00	29.732 
23:10	73.5	73.5	73.5	96	72.3	0	1	315	0.00	29.731 
23:15	73.3	73.3	73.3	96	72.1	0	0	---	0.00	29.731 
23:20	73.3	73.3	73.3	97	72.4	0	0	---	0.00	29.729 
23:25	73.3	73.3	73.3	97	72.4	0	0	---	0.00	29.727 
23:30	73.3	73.3	73.3	97	72.4	0	0	---	0.00	29.728 
23:35	73.3	73.3	73.3	97	72.4	0	1	315	0.00	29.728 
23:40	73.3	73.3	73.3	97	72.4	0	1	315	0.00	29.725 
23:45	73.3	73.3	73.3	97	72.4	0	0	---	0.00	29.728 
23:50	73.3	73.3	73.3	97	72.4	0	0	---	0.00	29.726 
23:55	73.5	73.5	73.5	97	72.6	0	0	---	0.00	29.725 

CoCoRaHS
IN-AL-39
A2 Web Hosting
Creative Commons License
GoDaddy
Look for:

loaded 2017-12-12 14:43:06 • last modified 2010-11-18 10:43:29
Privacy PolicyDisclaimer
• wx.awcolley.com is powered by PmWiki v.2002016 •
• all content (unless otherwise noted) © 2017 A W Colley